Northpine Estates, Indiana
Current Conditions -  °F | °C
As of 3:53 PM on Friday 19 Dec 2014 (Local Time) from KHUF Reporting Station
Overcast Overcast  
Wind Chill: 34°   Ceiling: 2900
Heat Index: 34°   Visibility: 10mi
Dew Point: 23°   Wind: 0mph
Humidity: 64%   Direction: NA
Pressure: 30.3"   Gusts: NA
Location:  39.6386°N, 87.3045°W
Report Text: KHUF 192053Z 00000KT 10SM OVC029 01/M05 A3030 RMK AO2 SLP267 T00111050 53001
Loading
Personal Weather Stations






























Interactive Weather Map New forecast layout! Learn more

10-Day Weather Forecast

Advertisements
Track Severe Weather on mobile